createdAt,value
2023-04-26T00:00:09.522Z,9.30
2023-04-26T00:01:14.817Z,9.30
2023-04-26T00:02:18.771Z,9.40
2023-04-26T00:03:24.014Z,8.10
2023-04-26T00:04:29.538Z,9.40
2023-04-26T00:05:35.785Z,9.40
2023-04-26T00:06:42.109Z,9.40
2023-04-26T00:07:46.436Z,9.40
2023-04-26T00:08:49.627Z,9.40
2023-04-26T00:09:55.644Z,8.00
2023-04-26T00:10:58.648Z,9.30
2023-04-26T00:12:04.079Z,9.30
2023-04-26T00:13:06.787Z,9.30
2023-04-26T00:14:12.082Z,7.40
2023-04-26T00:15:14.862Z,9.20
2023-04-26T00:16:20.637Z,9.20
2023-04-26T00:17:24.505Z,9.00
2023-04-26T00:18:28.290Z,9.50
2023-04-26T00:19:32.735Z,9.30
2023-04-26T00:20:36.388Z,9.30
2023-04-26T00:21:39.856Z,6.90
2023-04-26T00:22:44.798Z,6.60
2023-04-26T00:23:48.105Z,9.20
2023-04-26T00:24:51.951Z,9.20
2023-04-26T00:25:57.839Z,9.20
2023-04-26T00:27:05.519Z,9.10
2023-04-26T00:28:07.990Z,9.10
2023-04-26T00:29:11.905Z,9.10
2023-04-26T00:30:15.809Z,9.10
2023-04-26T00:31:19.912Z,9.00
2023-04-26T00:32:23.373Z,12.60
2023-04-26T00:33:27.690Z,9.00
2023-04-26T00:34:34.849Z,8.90
2023-04-26T00:35:39.339Z,8.80
2023-04-26T00:36:42.267Z,9.90
2023-04-26T00:37:46.611Z,8.80
2023-04-26T00:38:49.484Z,8.90
2023-04-26T00:39:53.694Z,8.80
2023-04-26T00:40:58.045Z,8.80
2023-04-26T00:42:02.007Z,5.60
2023-04-26T00:43:07.932Z,8.70
2023-04-26T00:44:10.876Z,8.70
2023-04-26T00:45:14.763Z,8.80
2023-04-26T00:46:17.949Z,8.60
2023-04-26T00:47:21.512Z,8.70
2023-04-26T00:48:24.801Z,5.90
2023-04-26T00:49:28.547Z,8.70
2023-04-26T00:50:32.665Z,6.00
2023-04-26T00:51:37.928Z,8.40
2023-04-26T00:52:40.968Z,8.70
2023-04-26T00:53:45.254Z,8.70
2023-04-26T00:54:49.974Z,8.60
2023-04-26T00:55:54.764Z,8.60
2023-04-26T00:56:58.988Z,8.60
2023-04-26T00:58:03.320Z,8.60
2023-04-26T00:59:06.705Z,8.20
2023-04-26T01:00:12.086Z,8.70
2023-04-26T01:01:15.380Z,8.70
2023-04-26T01:02:19.418Z,8.60
2023-04-26T01:03:22.613Z,8.60
2023-04-26T01:04:27.616Z,8.60
2023-04-26T01:05:31.701Z,8.60
2023-04-26T01:06:38.784Z,8.60
2023-04-26T01:07:42.689Z,8.60
2023-04-26T01:08:45.576Z,8.60
2023-04-26T01:09:50.978Z,8.70
2023-04-26T01:10:59.672Z,8.70
2023-04-26T01:12:05.724Z,8.70
2023-04-26T01:13:09.543Z,8.70
2023-04-26T01:14:12.140Z,8.70
2023-04-26T01:15:16.173Z,8.70
2023-04-26T01:16:21.002Z,8.70
2023-04-26T01:17:26.275Z,8.80
2023-04-26T01:18:29.451Z,8.80
2023-04-26T01:19:33.637Z,7.90
2023-04-26T01:20:36.514Z,6.00
2023-04-26T01:21:41.911Z,8.70
2023-04-26T01:22:47.087Z,8.70
2023-04-26T01:23:53.797Z,8.70
2023-04-26T01:25:27.459Z,8.70
2023-04-26T01:26:32.159Z,8.80
2023-04-26T01:27:36.335Z,8.80
2023-04-26T01:28:39.085Z,8.70
2023-04-26T01:29:43.269Z,8.80
2023-04-26T01:30:46.341Z,8.70
2023-04-26T01:31:51.096Z,8.70
2023-04-26T01:32:53.965Z,7.60
2023-04-26T01:33:58.024Z,8.80
2023-04-26T01:35:01.536Z,8.80
2023-04-26T01:36:10.212Z,8.90
2023-04-26T01:37:13.502Z,8.90
2023-04-26T01:38:20.473Z,8.90
2023-04-26T01:39:23.650Z,8.90
2023-04-26T01:40:27.697Z,9.00
2023-04-26T01:41:30.828Z,9.00
2023-04-26T01:42:37.556Z,9.00
2023-04-26T01:43:40.234Z,9.80
2023-04-26T01:44:44.234Z,7.00
2023-04-26T01:45:47.825Z,12.00
2023-04-26T01:47:07.437Z,9.10
2023-04-26T01:48:10.473Z,9.10
2023-04-26T01:49:14.432Z,9.10
2023-04-26T01:50:17.696Z,9.10
2023-04-26T01:51:21.725Z,9.00
2023-04-26T01:52:24.417Z,9.10
2023-04-26T01:53:30.417Z,9.00
2023-04-26T01:54:33.881Z,10.10
2023-04-26T01:55:38.107Z,9.10
2023-04-26T01:56:40.720Z,9.10
2023-04-26T01:57:44.649Z,9.10
2023-04-26T01:58:47.559Z,9.10
2023-04-26T01:59:51.234Z,8.40
2023-04-26T02:00:55.748Z,9.10
2023-04-26T02:01:59.853Z,9.10
2023-04-26T02:03:02.624Z,9.10
2023-04-26T02:04:07.560Z,9.10
2023-04-26T02:05:12.641Z,9.10
2023-04-26T02:06:16.785Z,9.10
2023-04-26T02:07:20.337Z,9.10
2023-04-26T02:08:24.592Z,9.10
2023-04-26T02:09:28.731Z,9.10
2023-04-26T02:10:32.298Z,9.00
2023-04-26T02:11:37.762Z,9.00
2023-04-26T02:12:41.930Z,8.10
2023-04-26T02:13:44.719Z,9.00
2023-04-26T02:14:48.720Z,9.00
2023-04-26T02:15:51.883Z,9.00
2023-04-26T02:16:57.529Z,9.00
2023-04-26T02:18:00.474Z,9.10
2023-04-26T02:19:05.680Z,9.10
2023-04-26T02:20:10.533Z,9.10
2023-04-26T02:21:14.685Z,9.10
2023-04-26T02:22:18.162Z,9.10
2023-04-26T02:23:21.851Z,9.10
2023-04-26T02:24:26.117Z,9.10
2023-04-26T02:25:31.647Z,9.10
2023-04-26T02:26:34.629Z,9.20
2023-04-26T02:27:38.738Z,9.10
2023-04-26T02:28:42.086Z,9.10
2023-04-26T02:29:46.063Z,9.10
2023-04-26T02:31:08.858Z,9.10
2023-04-26T02:32:13.617Z,9.10
2023-04-26T02:33:16.156Z,9.00
2023-04-26T02:34:21.317Z,6.50
2023-04-26T02:35:27.032Z,9.00
2023-04-26T02:36:30.766Z,9.10
2023-04-26T02:37:36.020Z,9.10
2023-04-26T02:38:42.012Z,9.10
2023-04-26T02:39:45.279Z,9.10
2023-04-26T02:40:53.889Z,9.10
2023-04-26T02:41:57.852Z,9.10
2023-04-26T02:43:03.077Z,10.40
2023-04-26T02:44:06.505Z,9.10
2023-04-26T02:45:10.755Z,9.10
2023-04-26T02:46:17.185Z,9.10
2023-04-26T02:47:24.988Z,9.10
2023-04-26T02:48:30.587Z,9.10
2023-04-26T02:49:35.069Z,11.60
2023-04-26T02:50:38.274Z,6.70
2023-04-26T02:51:43.259Z,9.10
2023-04-26T02:52:45.892Z,11.30
2023-04-26T02:53:49.765Z,9.10
2023-04-26T02:54:52.334Z,9.10
2023-04-26T02:55:57.505Z,9.10
2023-04-26T02:57:01.335Z,9.10
2023-04-26T02:58:05.586Z,9.10
2023-04-26T02:59:08.895Z,9.10
2023-04-26T03:00:23.905Z,9.10
2023-04-26T03:01:27.070Z,9.10
2023-04-26T03:02:31.595Z,9.10
2023-04-26T03:03:35.039Z,11.70
2023-04-26T03:04:40.235Z,9.10
2023-04-26T03:05:43.293Z,8.40
2023-04-26T03:06:48.878Z,9.10
2023-04-26T03:07:53.657Z,9.10
2023-04-26T03:08:59.410Z,9.10
2023-04-26T03:10:02.813Z,9.00
2023-04-26T03:11:08.347Z,9.00
2023-04-26T03:12:12.093Z,9.90
2023-04-26T03:13:16.752Z,9.00
2023-04-26T03:14:19.719Z,8.90
2023-04-26T03:15:25.963Z,8.90
2023-04-26T03:16:29.603Z,9.00
2023-04-26T03:17:33.652Z,8.90
2023-04-26T03:18:40.856Z,8.90
2023-04-26T03:19:46.718Z,8.90
2023-04-26T03:20:50.449Z,8.80
2023-04-26T03:21:52.948Z,8.80
2023-04-26T03:22:59.535Z,8.80
2023-04-26T03:24:02.729Z,8.70
2023-04-26T03:25:08.130Z,8.80
2023-04-26T03:26:12.397Z,8.80
2023-04-26T03:27:16.000Z,8.70
2023-04-26T03:28:22.038Z,6.90
2023-04-26T03:29:26.184Z,8.70
2023-04-26T03:30:28.833Z,8.70
2023-04-26T03:31:33.253Z,8.70
2023-04-26T03:32:36.097Z,8.70
2023-04-26T03:33:40.196Z,8.60
2023-04-26T03:34:43.844Z,8.50
2023-04-26T03:35:47.799Z,8.60
2023-04-26T03:36:52.022Z,8.60
2023-04-26T03:37:57.231Z,8.60
2023-04-26T03:39:04.599Z,8.60
2023-04-26T03:40:10.031Z,8.60
2023-04-26T03:41:15.488Z,8.50
2023-04-26T03:42:23.896Z,8.50
2023-04-26T03:43:30.575Z,8.50
2023-04-26T03:44:33.855Z,8.50
2023-04-26T03:45:40.235Z,8.40
2023-04-26T03:46:43.699Z,8.50
2023-04-26T03:47:50.706Z,8.40
2023-04-26T03:48:53.661Z,8.40
2023-04-26T03:49:57.670Z,8.40
2023-04-26T03:51:02.640Z,8.40
2023-04-26T03:52:06.777Z,8.40
2023-04-26T03:53:09.676Z,8.40
2023-04-26T03:54:13.943Z,8.40
2023-04-26T03:55:19.491Z,6.90
2023-04-26T03:56:25.527Z,8.30
2023-04-26T03:57:29.161Z,8.30
2023-04-26T03:58:33.849Z,8.20
2023-04-26T03:59:36.730Z,8.30
2023-04-26T04:00:43.685Z,8.30
2023-04-26T04:01:49.032Z,8.20
2023-04-26T04:02:53.251Z,8.30
2023-04-26T04:04:00.778Z,8.30
2023-04-26T04:05:08.521Z,8.20
2023-04-26T04:06:13.187Z,8.30
2023-04-26T04:07:18.544Z,8.30
2023-04-26T04:08:22.140Z,8.30
2023-04-26T04:09:25.844Z,8.30
2023-04-26T04:10:30.390Z,8.40
2023-04-26T04:11:35.381Z,8.40
2023-04-26T04:12:38.376Z,8.50
2023-04-26T04:13:42.558Z,8.50
2023-04-26T04:14:48.068Z,8.60
2023-04-26T04:15:54.220Z,8.60
2023-04-26T04:16:56.796Z,8.70
2023-04-26T04:18:00.883Z,8.80
2023-04-26T04:19:04.080Z,9.20
2023-04-26T04:20:12.164Z,9.10
2023-04-26T04:21:16.851Z,8.30
2023-04-26T04:22:20.922Z,9.40
2023-04-26T04:23:24.127Z,9.70
2023-04-26T04:24:32.774Z,9.80
2023-04-26T04:25:37.111Z,10.00
2023-04-26T04:26:46.020Z,10.20
2023-04-26T04:27:50.287Z,10.40
2023-04-26T04:28:55.335Z,10.60
2023-04-26T04:29:58.256Z,10.80
2023-04-26T04:31:05.539Z,9.60
2023-04-26T04:32:09.090Z,14.10
2023-04-26T04:33:14.521Z,11.40
2023-04-26T04:34:17.214Z,11.50
2023-04-26T04:35:25.814Z,11.80
2023-04-26T04:36:28.499Z,11.80
2023-04-26T04:37:34.974Z,11.90
2023-04-26T04:38:40.282Z,12.10
2023-04-26T04:39:46.985Z,12.20
2023-04-26T04:40:53.524Z,12.30
2023-04-26T04:41:59.107Z,12.50
2023-04-26T04:43:02.747Z,12.50
2023-04-26T04:44:08.559Z,15.20
2023-04-26T04:45:12.816Z,11.60
2023-04-26T04:46:20.308Z,15.40
2023-04-26T04:47:24.859Z,15.30
2023-04-26T04:48:32.202Z,13.20
2023-04-26T04:49:38.783Z,15.60
2023-04-26T04:50:44.230Z,13.00
2023-04-26T04:51:47.909Z,13.00
2023-04-26T04:52:52.786Z,13.10
2023-04-26T04:54:01.720Z,13.20
2023-04-26T04:55:07.816Z,13.20
2023-04-26T04:56:12.469Z,13.20
2023-04-26T04:57:19.167Z,13.20
2023-04-26T04:58:27.864Z,13.30
2023-04-26T04:59:33.384Z,13.40
2023-04-26T05:00:41.559Z,13.40
2023-04-26T05:01:52.480Z,11.10
2023-04-26T05:02:56.856Z,13.60
2023-04-26T05:03:59.973Z,13.60
2023-04-26T05:05:07.963Z,13.60
2023-04-26T05:06:11.382Z,13.70
2023-04-26T05:07:15.931Z,13.70
2023-04-26T05:08:22.377Z,13.60
2023-04-26T05:09:27.064Z,13.50
2023-04-26T05:10:31.091Z,13.50
2023-04-26T05:11:36.492Z,13.20
2023-04-26T05:12:43.888Z,13.20
2023-04-26T05:13:47.343Z,13.10
2023-04-26T05:14:51.430Z,13.10
2023-04-26T05:15:58.075Z,13.20
2023-04-26T05:17:01.033Z,13.20
2023-04-26T05:18:05.904Z,13.20
2023-04-26T05:19:09.652Z,13.10
2023-04-26T05:20:15.198Z,12.90
2023-04-26T05:21:18.033Z,12.80
2023-04-26T05:22:23.020Z,12.70
2023-04-26T05:23:26.153Z,12.60
2023-04-26T05:24:35.207Z,11.60
2023-04-26T05:25:38.690Z,12.40
2023-04-26T05:27:04.358Z,12.40
2023-04-26T05:28:18.150Z,12.40
2023-04-26T05:29:45.541Z,12.20
2023-04-26T05:31:02.824Z,12.30
2023-04-26T05:32:25.345Z,12.50
2023-04-26T05:33:50.281Z,12.60
2023-04-26T05:35:06.871Z,12.50
2023-04-26T05:36:11.747Z,12.30
2023-04-26T05:37:17.604Z,12.50
2023-04-26T05:38:22.648Z,12.80
2023-04-26T05:39:26.725Z,13.00
2023-04-26T05:40:32.323Z,13.30
2023-04-26T05:41:39.656Z,13.70
2023-04-26T05:42:42.677Z,14.30
2023-04-26T05:43:49.686Z,14.60
2023-04-26T05:44:58.647Z,14.80
2023-04-26T05:46:03.838Z,15.00
2023-04-26T05:47:08.904Z,15.20
2023-04-26T05:48:12.928Z,15.20
2023-04-26T05:49:17.715Z,15.60
2023-04-26T05:50:22.660Z,15.50
2023-04-26T05:51:28.717Z,15.30
2023-04-26T05:52:32.552Z,15.40
2023-04-26T05:53:37.120Z,15.40
2023-04-26T05:54:40.176Z,15.50
2023-04-26T05:55:47.597Z,15.60
2023-04-26T05:56:52.587Z,15.70
2023-04-26T05:57:59.095Z,15.80
2023-04-26T05:59:05.010Z,15.90
2023-04-26T06:00:13.546Z,15.90
2023-04-26T06:01:21.805Z,15.80
2023-04-26T06:02:27.060Z,15.80
2023-04-26T06:03:32.827Z,16.00
2023-04-26T06:04:36.910Z,16.10
2023-04-26T06:05:45.544Z,16.20
2023-04-26T06:06:49.578Z,16.30
2023-04-26T06:07:52.668Z,16.50
2023-04-26T06:08:57.532Z,16.40
2023-04-26T06:10:03.340Z,16.50
2023-04-26T06:11:09.219Z,16.40
2023-04-26T06:12:13.598Z,16.40
2023-04-26T06:13:19.441Z,16.50
2023-04-26T06:14:30.767Z,14.00
2023-04-26T06:15:41.371Z,16.80
2023-04-26T06:16:45.250Z,16.90
2023-04-26T06:17:48.077Z,17.00
2023-04-26T06:18:53.436Z,17.00
2023-04-26T06:21:00.961Z,17.00
2023-04-26T06:22:04.181Z,17.10
2023-04-26T06:23:08.452Z,17.20
2023-04-26T06:24:12.341Z,17.20
2023-04-26T06:25:18.016Z,17.20
2023-04-26T06:26:21.434Z,17.30
2023-04-26T06:27:26.713Z,17.40
2023-04-26T06:28:31.707Z,17.50
2023-04-26T06:29:36.301Z,17.50
2023-04-26T06:30:44.483Z,17.40
2023-04-26T06:31:49.156Z,17.50
2023-04-26T06:32:55.873Z,17.50
2023-04-26T06:33:59.682Z,17.50
2023-04-26T06:35:06.265Z,17.50
2023-04-26T06:36:15.874Z,17.50
2023-04-26T06:37:18.859Z,16.00
2023-04-26T06:38:24.233Z,17.30
2023-04-26T06:39:27.837Z,17.20
2023-04-26T06:40:32.021Z,17.20
2023-04-26T06:41:38.622Z,19.40
2023-04-26T06:42:43.045Z,17.20
2023-04-26T06:44:15.179Z,17.20
2023-04-26T06:45:21.445Z,17.30
2023-04-26T06:46:24.598Z,17.40
2023-04-26T06:47:30.544Z,17.40
2023-04-26T06:48:33.728Z,17.40
2023-04-26T06:49:41.456Z,17.30
2023-04-26T06:50:45.328Z,17.30
2023-04-26T06:51:48.114Z,17.40
2023-04-26T06:52:52.281Z,18.00
2023-04-26T06:53:55.506Z,17.60
2023-04-26T06:55:02.666Z,17.60
2023-04-26T06:56:06.936Z,17.70
2023-04-26T06:57:10.038Z,17.80
2023-04-26T06:58:14.750Z,17.80
2023-04-26T06:59:21.450Z,17.90
2023-04-26T07:00:27.282Z,15.80
2023-04-26T07:01:34.167Z,19.50
2023-04-26T07:02:41.215Z,18.10
2023-04-26T07:03:45.235Z,18.20
2023-04-26T07:04:49.784Z,18.30
2023-04-26T07:05:53.697Z,18.40
2023-04-26T07:06:56.882Z,18.40
2023-04-26T07:08:04.197Z,18.40
2023-04-26T07:09:08.488Z,18.40
2023-04-26T07:10:13.201Z,18.50
2023-04-26T07:11:17.241Z,18.60
2023-04-26T07:17:47.106Z,18.80
2023-04-26T07:18:50.602Z,18.80
2023-04-26T07:19:56.168Z,18.90
2023-04-26T07:21:00.203Z,19.00
2023-04-26T07:22:04.855Z,19.00
2023-04-26T07:23:09.385Z,19.00
2023-04-26T07:24:16.216Z,18.80
2023-04-26T07:25:20.711Z,18.30
2023-04-26T07:26:25.095Z,18.30
2023-04-26T07:27:34.139Z,18.20
2023-04-26T07:28:38.156Z,18.30
2023-04-26T07:29:41.118Z,18.40
2023-04-26T07:30:51.898Z,18.30
2023-04-26T07:31:57.974Z,18.40
2023-04-26T07:33:02.753Z,18.50
2023-04-26T07:34:06.842Z,18.40
2023-04-26T07:35:16.141Z,18.50
2023-04-26T07:36:24.523Z,18.50
2023-04-26T07:37:28.155Z,18.60
2023-04-26T07:38:32.186Z,21.10
2023-04-26T07:39:36.578Z,18.80
2023-04-26T07:40:40.311Z,18.90
2023-04-26T07:41:44.372Z,19.90
2023-04-26T07:42:48.677Z,19.30
2023-04-26T07:43:51.637Z,18.50
2023-04-26T07:44:55.621Z,18.60
2023-04-26T07:46:03.482Z,18.40
2023-04-26T07:47:12.465Z,18.20
2023-04-26T07:48:16.946Z,18.00
2023-04-26T07:49:20.692Z,17.90
2023-04-26T07:50:27.285Z,17.70
2023-04-26T07:51:32.284Z,17.50
2023-04-26T07:52:36.379Z,17.20
2023-04-26T07:53:43.928Z,17.10
2023-04-26T07:54:48.286Z,16.70
2023-04-26T07:55:52.712Z,17.00
2023-04-26T07:56:57.289Z,17.00
2023-04-26T07:58:01.361Z,16.90
2023-04-26T07:59:05.094Z,16.70
2023-04-26T08:00:12.360Z,16.60
2023-04-26T08:01:17.805Z,16.30
2023-04-26T08:02:24.969Z,16.30
2023-04-26T08:03:34.364Z,16.20
2023-04-26T08:04:38.925Z,16.30
2023-04-26T08:05:41.865Z,16.40
2023-04-26T08:06:48.893Z,16.50
2023-04-26T08:07:51.585Z,16.40
2023-04-26T08:08:55.448Z,16.50
2023-04-26T08:09:59.690Z,16.50
2023-04-26T08:11:02.285Z,16.60
2023-04-26T08:12:07.098Z,16.70
2023-04-26T08:13:11.194Z,16.60
2023-04-26T08:14:17.457Z,16.50
2023-04-26T08:15:21.411Z,16.40
2023-04-26T08:16:27.300Z,16.20
2023-04-26T08:17:30.611Z,16.30
2023-04-26T08:18:35.387Z,16.30
2023-04-26T08:19:39.284Z,18.20
2023-04-26T08:20:43.715Z,16.20
2023-04-26T08:21:47.807Z,16.10
2023-04-26T08:22:50.741Z,16.10
2023-04-26T08:23:55.131Z,16.20
2023-04-26T08:24:59.731Z,16.30
2023-04-26T08:26:03.586Z,16.40
2023-04-26T08:27:09.601Z,16.40
2023-04-26T08:28:15.446Z,16.30
2023-04-26T08:29:19.475Z,14.00
2023-04-26T08:30:24.222Z,16.10
2023-04-26T08:31:31.958Z,15.90
2023-04-26T08:32:35.891Z,13.50
2023-04-26T08:33:40.578Z,17.60
2023-04-26T08:34:43.844Z,14.10
2023-04-26T08:35:50.827Z,15.10
2023-04-26T08:36:57.150Z,15.00
2023-04-26T08:38:03.356Z,14.80
2023-04-26T08:39:07.275Z,14.80
2023-04-26T08:40:11.771Z,14.60
2023-04-26T08:41:17.206Z,13.80
2023-04-26T08:42:26.620Z,14.70
2023-04-26T08:43:30.508Z,14.80
2023-04-26T08:44:38.465Z,14.90
2023-04-26T08:45:44.338Z,15.10
2023-04-26T08:47:02.225Z,15.30
2023-04-26T08:48:15.190Z,14.60
2023-04-26T08:49:31.530Z,15.50
2023-04-26T08:50:40.436Z,15.60
2023-04-26T08:51:46.903Z,15.60
2023-04-26T08:52:53.681Z,15.60
2023-04-26T08:54:00.993Z,15.50
2023-04-26T08:55:07.932Z,15.40
2023-04-26T08:56:14.672Z,15.30
2023-04-26T08:57:18.815Z,15.10
2023-04-26T08:58:25.158Z,14.90
2023-04-26T08:59:29.219Z,14.60
2023-04-26T09:00:34.663Z,14.40
2023-04-26T09:01:41.154Z,14.40
2023-04-26T09:02:49.345Z,14.40
2023-04-26T09:03:54.272Z,14.40
2023-04-26T09:05:01.940Z,14.30
2023-04-26T09:06:10.668Z,14.40
2023-04-26T09:07:22.577Z,14.50
2023-04-26T09:08:28.422Z,14.50
2023-04-26T09:09:42.457Z,14.50
2023-04-26T09:10:47.572Z,14.40
2023-04-26T09:11:57.976Z,16.50
2023-04-26T09:13:02.850Z,14.60
2023-04-26T09:14:05.636Z,14.50
2023-04-26T09:15:13.609Z,14.60
2023-04-26T09:16:22.991Z,14.60
2023-04-26T09:17:27.639Z,14.60
2023-04-26T09:18:35.468Z,14.90
2023-04-26T09:19:43.806Z,14.70
2023-04-26T09:20:47.966Z,14.90
2023-04-26T09:21:50.499Z,14.90
2023-04-26T09:22:56.520Z,14.90
2023-04-26T09:24:02.376Z,14.80
2023-04-26T09:25:08.854Z,14.40
2023-04-26T09:26:23.582Z,14.50
2023-04-26T09:27:39.789Z,14.40
2023-04-26T09:28:43.303Z,14.20
2023-04-26T09:30:00.989Z,14.20
2023-04-26T09:31:06.054Z,14.20
2023-04-26T09:32:10.329Z,14.10
2023-04-26T09:33:14.008Z,14.10
2023-04-26T09:34:19.750Z,14.00
2023-04-26T09:35:34.744Z,13.90
2023-04-26T09:36:52.588Z,13.80
2023-04-26T09:38:02.320Z,13.80
2023-04-26T09:39:11.729Z,13.50
2023-04-26T09:40:19.802Z,13.50
2023-04-26T09:41:23.514Z,13.50
2023-04-26T09:42:26.867Z,13.60
2023-04-26T09:43:39.826Z,13.60
2023-04-26T09:44:42.547Z,12.30
2023-04-26T09:45:50.527Z,13.40
2023-04-26T09:47:00.175Z,14.00
2023-04-26T09:48:20.474Z,13.30
2023-04-26T09:49:26.545Z,13.20
2023-04-26T09:50:32.746Z,13.10
2023-04-26T09:51:36.679Z,13.10
2023-04-26T09:52:45.226Z,13.00
2023-04-26T09:53:51.405Z,11.90
2023-04-26T09:54:57.504Z,12.70
2023-04-26T09:56:10.280Z,12.60
2023-04-26T09:57:14.008Z,13.80
2023-04-26T09:58:18.479Z,12.40
2023-04-26T09:59:27.630Z,12.30
2023-04-26T10:00:34.076Z,12.00
2023-04-26T10:01:40.207Z,12.80
2023-04-26T10:02:46.811Z,11.90
2023-04-26T10:03:51.789Z,11.90
2023-04-26T10:05:03.283Z,12.00
2023-04-26T10:06:08.646Z,12.00
2023-04-26T10:07:12.239Z,12.10
2023-04-26T10:08:17.014Z,12.30
2023-04-26T10:09:20.398Z,12.50
2023-04-26T10:10:25.734Z,12.70
2023-04-26T10:11:31.458Z,12.80
2023-04-26T10:12:35.986Z,13.40
2023-04-26T10:13:41.635Z,13.10
2023-04-26T10:14:49.532Z,13.10
2023-04-26T10:15:55.455Z,13.20
2023-04-26T10:16:59.787Z,13.10
2023-04-26T10:18:04.739Z,13.10
2023-04-26T10:19:08.742Z,13.00
2023-04-26T10:20:17.058Z,12.80
2023-04-26T10:21:28.392Z,12.80
2023-04-26T10:22:36.171Z,12.70
2023-04-26T10:23:43.810Z,12.60
2023-04-26T10:24:47.338Z,12.70
2023-04-26T10:25:51.578Z,12.60
2023-04-26T10:26:58.375Z,12.60
2023-04-26T10:28:03.772Z,12.60
2023-04-26T10:29:06.857Z,12.60
2023-04-26T10:30:15.354Z,12.60
2023-04-26T10:31:19.276Z,12.70
2023-04-26T10:32:22.486Z,12.80
2023-04-26T10:33:28.148Z,12.90
2023-04-26T10:34:33.229Z,12.80
2023-04-26T10:35:39.598Z,12.70
2023-04-26T10:37:24.876Z,12.80
2023-04-26T10:38:35.737Z,12.80
2023-04-26T10:39:41.725Z,12.80
2023-04-26T10:40:46.548Z,12.90
2023-04-26T10:41:53.947Z,12.80
2023-04-26T10:43:32.175Z,12.70
2023-04-26T10:44:46.360Z,13.60
2023-04-26T10:45:51.657Z,12.50
2023-04-26T10:46:54.532Z,12.40
2023-04-26T10:48:17.688Z,12.30
2023-04-26T10:49:25.844Z,13.60
2023-04-26T10:50:30.853Z,12.70
2023-04-26T10:51:38.469Z,11.90
2023-04-26T10:53:07.463Z,11.70
2023-04-26T10:54:10.433Z,11.40
2023-04-26T10:55:14.126Z,11.40
2023-04-26T10:56:54.220Z,11.50
2023-04-26T10:57:58.282Z,11.50
2023-04-26T11:00:37.024Z,11.50
2023-04-26T11:01:42.805Z,11.50
2023-04-26T11:02:49.785Z,13.40
2023-04-26T11:04:08.896Z,11.50
2023-04-26T11:05:12.420Z,11.60
2023-04-26T11:06:17.645Z,11.40
2023-04-26T11:07:38.793Z,10.90
2023-04-26T11:08:43.818Z,11.70
2023-04-26T11:09:50.078Z,11.80
2023-04-26T11:11:10.878Z,11.90
2023-04-26T11:12:16.516Z,11.90
2023-04-26T11:13:19.906Z,14.60
2023-04-26T11:14:24.214Z,9.70
2023-04-26T11:15:27.582Z,11.90
2023-04-26T11:16:31.511Z,11.80
2023-04-26T11:17:37.971Z,11.70
2023-04-26T11:18:44.246Z,11.50
2023-04-26T11:19:47.541Z,11.50
2023-04-26T11:20:51.595Z,11.50
2023-04-26T11:21:56.268Z,11.40
2023-04-26T11:23:02.914Z,11.40
2023-04-26T11:24:07.420Z,11.30
2023-04-26T11:25:13.379Z,11.20
2023-04-26T11:26:17.368Z,11.30
2023-04-26T11:27:21.211Z,9.60
2023-04-26T11:28:25.065Z,11.30
2023-04-26T11:29:33.159Z,11.30
2023-04-26T11:30:40.608Z,14.40
2023-04-26T11:31:44.821Z,11.50
2023-04-26T11:32:48.948Z,11.50
2023-04-26T11:33:55.788Z,11.60
2023-04-26T11:35:01.136Z,11.70
2023-04-26T11:36:08.210Z,11.70
2023-04-26T11:37:12.112Z,11.80
2023-04-26T11:38:17.829Z,11.90
2023-04-26T11:39:22.510Z,11.90
2023-04-26T11:40:29.674Z,11.80
2023-04-26T11:41:36.629Z,11.80
2023-04-26T11:42:40.330Z,10.60
2023-04-26T11:43:44.495Z,11.60
2023-04-26T11:44:51.527Z,11.50
2023-04-26T11:46:02.467Z,11.50
2023-04-26T11:47:11.734Z,11.50
2023-04-26T11:48:17.097Z,11.50
2023-04-26T11:49:21.737Z,11.40
2023-04-26T11:50:27.254Z,11.40
2023-04-26T11:51:32.347Z,11.50
2023-04-26T11:52:37.424Z,11.40
2023-04-26T11:53:44.655Z,11.60
2023-04-26T11:54:47.944Z,11.60
2023-04-26T11:55:52.181Z,11.70
2023-04-26T11:56:56.128Z,11.70
2023-04-26T11:57:59.977Z,11.20
2023-04-26T11:59:04.193Z,11.70
2023-04-26T12:00:16.060Z,11.70
2023-04-26T12:01:23.996Z,11.70
2023-04-26T12:02:29.925Z,11.70
2023-04-26T12:03:38.953Z,11.50
2023-04-26T12:04:44.567Z,11.50
2023-04-26T12:05:56.593Z,11.50
2023-04-26T12:07:04.096Z,11.60
2023-04-26T12:08:12.043Z,11.60
2023-04-26T12:09:17.992Z,11.60
2023-04-26T12:10:25.222Z,11.70
2023-04-26T12:11:29.046Z,11.80
2023-04-26T12:12:31.648Z,12.60
2023-04-26T12:13:40.138Z,11.80
2023-04-26T12:14:43.562Z,11.40
2023-04-26T12:15:48.404Z,11.90
2023-04-26T12:16:52.226Z,12.00
2023-04-26T12:17:56.768Z,12.10
2023-04-26T12:19:01.678Z,12.30
2023-04-26T12:20:10.844Z,12.30
2023-04-26T12:21:15.400Z,12.50
2023-04-26T12:22:24.079Z,12.80
2023-04-26T12:23:28.199Z,13.00
2023-04-26T12:24:34.898Z,13.10
2023-04-26T12:25:41.568Z,13.30
2023-04-26T12:26:49.597Z,13.40
2023-04-26T12:27:53.434Z,13.30
2023-04-26T12:28:57.762Z,13.30
2023-04-26T12:30:00.701Z,13.20
2023-04-26T12:31:05.040Z,13.20
2023-04-26T12:32:15.087Z,13.20
2023-04-26T12:33:23.748Z,12.60
2023-04-26T12:34:27.691Z,13.10
2023-04-26T12:35:32.826Z,12.90
2023-04-26T12:36:36.984Z,12.70
2023-04-26T12:37:41.828Z,12.50
2023-04-26T12:38:46.012Z,12.10
2023-04-26T12:39:50.713Z,12.30
2023-04-26T12:40:55.299Z,12.30
2023-04-26T12:41:59.409Z,12.30
2023-04-26T12:43:02.874Z,12.30
2023-04-26T12:44:07.520Z,12.20
2023-04-26T12:45:13.157Z,12.00
2023-04-26T12:46:18.109Z,12.00
2023-04-26T12:47:21.775Z,12.10
2023-04-26T12:48:26.293Z,12.20
2023-04-26T12:49:29.941Z,12.20
2023-04-26T12:50:34.349Z,12.30
2023-04-26T12:51:39.124Z,12.50
2023-04-26T12:52:46.192Z,12.60
2023-04-26T12:53:51.345Z,12.70
2023-04-26T12:54:57.155Z,12.80
2023-04-26T12:56:01.085Z,12.80
2023-04-26T12:57:05.720Z,12.80
2023-04-26T12:58:10.543Z,12.70
2023-04-26T12:59:13.769Z,12.60
2023-04-26T13:00:19.908Z,12.50
2023-04-26T13:01:22.584Z,12.50
2023-04-26T13:02:26.529Z,12.60
2023-04-26T13:03:31.146Z,12.50
2023-04-26T13:04:39.202Z,12.60
2023-04-26T13:05:46.224Z,12.40
2023-04-26T13:06:50.368Z,12.30
2023-04-26T13:07:54.303Z,12.30
2023-04-26T13:08:57.233Z,12.20
2023-04-26T13:10:03.611Z,12.00
2023-04-26T13:11:08.037Z,11.90
2023-04-26T13:12:11.504Z,11.90
2023-04-26T13:13:15.443Z,11.90
2023-04-26T13:14:18.115Z,11.80
2023-04-26T13:15:22.105Z,11.80
2023-04-26T13:16:26.012Z,11.80
2023-04-26T13:17:30.325Z,11.80
2023-04-26T13:18:33.118Z,11.70
2023-04-26T13:19:41.486Z,10.60
2023-04-26T13:20:48.208Z,11.60
2023-04-26T13:21:52.716Z,11.60
2023-04-26T13:22:57.332Z,11.70
2023-04-26T13:24:00.041Z,11.70
2023-04-26T13:25:06.149Z,11.70
2023-04-26T13:26:10.082Z,11.70
2023-04-26T13:27:13.364Z,10.30
2023-04-26T13:28:17.261Z,11.80
2023-04-26T13:29:20.007Z,11.90
2023-04-26T13:30:24.081Z,12.00
2023-04-26T13:31:27.561Z,12.00
2023-04-26T13:32:32.173Z,12.00
2023-04-26T13:33:36.355Z,12.00
2023-04-26T13:34:40.552Z,12.00
2023-04-26T13:35:44.161Z,12.00
2023-04-26T13:36:46.725Z,12.20
2023-04-26T13:37:51.041Z,12.30
2023-04-26T13:38:54.383Z,12.50
2023-04-26T13:40:00.411Z,12.70
2023-04-26T13:41:05.980Z,12.70
2023-04-26T13:42:08.731Z,12.70
2023-04-26T13:43:12.625Z,12.60
2023-04-26T13:44:16.294Z,12.10
2023-04-26T13:45:20.985Z,12.80
2023-04-26T13:46:29.193Z,12.80
2023-04-26T13:47:33.534Z,12.70
2023-04-26T13:48:37.200Z,12.60
2023-04-26T13:49:44.998Z,14.30
2023-04-26T13:50:47.928Z,12.70
2023-04-26T13:51:52.822Z,12.70
2023-04-26T13:52:56.837Z,12.70
2023-04-26T13:54:02.234Z,12.80
2023-04-26T13:55:06.621Z,12.80
2023-04-26T13:56:10.753Z,12.90
2023-04-26T13:57:15.172Z,12.90
2023-04-26T13:58:18.460Z,12.90
2023-04-26T13:59:23.593Z,12.90
2023-04-26T14:00:27.382Z,12.90
2023-04-26T14:01:31.530Z,12.20
2023-04-26T14:02:34.908Z,12.90
2023-04-26T14:03:39.681Z,12.80
2023-04-26T14:04:44.431Z,13.00
2023-04-26T14:05:47.583Z,12.90
2023-04-26T14:06:53.915Z,12.90
2023-04-26T14:07:59.140Z,13.00
2023-04-26T14:09:02.115Z,13.10
2023-04-26T14:10:06.300Z,13.20
2023-04-26T14:11:11.352Z,13.20
2023-04-26T14:12:16.825Z,13.30
2023-04-26T14:13:21.184Z,13.30
2023-04-26T14:14:28.356Z,12.60
2023-04-26T14:15:32.252Z,13.40
2023-04-26T14:16:36.405Z,13.50
2023-04-26T14:17:39.845Z,13.50
2023-04-26T14:18:45.924Z,13.50
2023-04-26T14:19:49.380Z,13.50
2023-04-26T14:20:53.057Z,13.40
2023-04-26T14:21:57.550Z,13.20
2023-04-26T14:23:00.667Z,13.20